createdAt,value
2023-02-28T00:01:33.336Z,11.77
2023-02-28T00:04:02.902Z,11.73
2023-02-28T00:06:32.290Z,10.00
2023-02-28T00:09:01.521Z,11.80
2023-02-28T00:11:31.714Z,12.90
2023-02-28T00:14:01.438Z,11.48
2023-02-28T00:16:30.781Z,9.73
2023-02-28T00:19:00.119Z,12.05
2023-02-28T00:21:30.188Z,15.03
2023-02-28T00:23:59.602Z,12.98
2023-02-28T00:26:28.929Z,10.08
2023-02-28T00:28:58.131Z,11.10
2023-02-28T00:31:27.871Z,11.93
2023-02-28T00:33:57.383Z,11.57
2023-02-28T00:36:26.738Z,13.40
2023-02-28T00:38:56.179Z,10.75
2023-02-28T00:41:25.424Z,16.93
2023-02-28T00:43:54.821Z,11.38
2023-02-28T00:46:24.236Z,15.75
2023-02-28T00:48:53.728Z,13.80
2023-02-28T00:51:22.982Z,12.03
2023-02-28T00:53:52.974Z,12.40
2023-02-28T00:56:23.048Z,12.65
2023-02-28T00:58:52.302Z,9.43
2023-02-28T01:01:21.723Z,14.00
2023-02-28T01:03:51.432Z,10.48
2023-02-28T01:06:21.008Z,10.95
2023-02-28T01:08:50.522Z,10.00
2023-02-28T01:11:20.960Z,11.73
2023-02-28T01:13:50.262Z,10.00
2023-02-28T01:16:19.950Z,11.00
2023-02-28T01:18:49.456Z,13.15
2023-02-28T01:21:21.249Z,10.35
2023-02-28T01:23:50.907Z,11.45
2023-02-28T01:26:22.731Z,10.60
2023-02-28T01:28:54.037Z,9.23
2023-02-28T01:31:24.749Z,11.20
2023-02-28T01:33:54.043Z,10.63
2023-02-28T01:36:25.413Z,13.90
2023-02-28T01:38:56.001Z,11.05
2023-02-28T01:41:31.677Z,9.20
2023-02-28T01:44:09.538Z,11.43
2023-02-28T01:46:38.842Z,10.65
2023-02-28T01:49:11.612Z,8.50
2023-02-28T01:51:51.082Z,10.90
2023-02-28T01:54:26.416Z,11.68
2023-02-28T01:56:59.134Z,8.53
2023-02-28T01:59:38.630Z,11.70
2023-02-28T02:02:08.196Z,11.03
2023-02-28T02:04:57.617Z,12.63
2023-02-28T02:07:27.670Z,9.75
2023-02-28T02:10:09.250Z,11.57
2023-02-28T02:12:50.442Z,10.45
2023-02-28T02:15:35.016Z,9.00
2023-02-28T02:18:07.230Z,10.15
2023-02-28T02:20:49.276Z,14.95
2023-02-28T02:23:35.348Z,12.45
2023-02-28T02:26:16.768Z,11.20
2023-02-28T02:31:23.766Z,10.03
2023-02-28T02:34:24.834Z,10.05
2023-02-28T02:36:57.303Z,9.30
2023-02-28T02:39:42.518Z,11.93
2023-02-28T02:42:15.100Z,11.88
2023-02-28T02:44:54.388Z,11.83
2023-02-28T02:47:28.388Z,10.05
2023-02-28T02:50:00.195Z,9.60
2023-02-28T02:52:32.755Z,10.18
2023-02-28T02:55:02.848Z,11.97
2023-02-28T02:57:38.595Z,15.30
2023-02-28T03:00:09.767Z,12.70
2023-02-28T03:02:40.583Z,9.85
2023-02-28T03:05:16.330Z,13.03
2023-02-28T03:07:45.826Z,13.90
2023-02-28T03:10:38.418Z,11.30
2023-02-28T03:13:11.130Z,10.13
2023-02-28T03:15:43.912Z,10.32
2023-02-28T03:18:17.169Z,10.13
2023-02-28T03:20:56.008Z,10.68
2023-02-28T03:23:44.363Z,9.73
2023-02-28T03:26:19.792Z,11.68
2023-02-28T03:29:18.449Z,14.35
2023-02-28T03:31:50.985Z,12.23
2023-02-28T03:34:26.234Z,12.47
2023-02-28T03:37:01.787Z,11.78
2023-02-28T03:39:39.958Z,15.83
2023-02-28T03:42:15.286Z,12.23
2023-02-28T03:44:53.240Z,10.43
2023-02-28T03:47:37.532Z,11.63
2023-02-28T03:50:18.753Z,13.43
2023-02-28T03:53:06.561Z,11.80
2023-02-28T03:55:39.582Z,11.43
2023-02-28T03:58:12.247Z,10.40
2023-02-28T04:00:44.648Z,11.35
2023-02-28T04:05:56.824Z,16.35
2023-02-28T04:08:26.100Z,15.15
2023-02-28T04:11:06.957Z,11.70
2023-02-28T04:13:36.280Z,16.40
2023-02-28T04:16:13.485Z,12.43
2023-02-28T04:18:45.808Z,11.25
2023-02-28T04:23:43.838Z,14.40
2023-02-28T04:26:13.155Z,12.82
2023-02-28T04:28:42.435Z,14.10
2023-02-28T04:31:12.334Z,17.62
2023-02-28T04:33:42.227Z,10.75
2023-02-28T04:36:11.684Z,15.15
2023-02-28T04:38:41.485Z,12.68
2023-02-28T04:41:10.789Z,12.53
2023-02-28T04:43:40.449Z,13.80
2023-02-28T04:46:11.091Z,11.70
2023-02-28T04:48:41.797Z,16.30
2023-02-28T04:51:13.834Z,12.68
2023-02-28T04:53:44.771Z,13.20
2023-02-28T04:56:15.676Z,14.33
2023-02-28T04:58:45.166Z,10.75
2023-02-28T05:01:29.071Z,11.00
2023-02-28T05:04:00.246Z,21.93
2023-02-28T05:06:31.423Z,31.12
2023-02-28T05:09:01.090Z,29.10
2023-02-28T05:11:36.354Z,23.92
2023-02-28T05:14:08.445Z,20.40
2023-02-28T05:16:38.016Z,15.80
2023-02-28T05:19:07.416Z,15.63
2023-02-28T05:21:41.460Z,13.85
2023-02-28T05:24:13.990Z,11.45
2023-02-28T05:26:44.772Z,14.00
2023-02-28T05:29:14.029Z,12.33
2023-02-28T05:31:43.383Z,10.28
2023-02-28T05:34:13.590Z,11.60
2023-02-28T05:36:42.821Z,11.60
2023-02-28T05:39:14.070Z,11.43
2023-02-28T05:41:44.785Z,9.13
2023-02-28T05:44:14.555Z,12.03
2023-02-28T05:46:43.832Z,9.18
2023-02-28T05:49:13.055Z,13.08
2023-02-28T05:51:42.724Z,11.12
2023-02-28T05:54:13.847Z,12.90
2023-02-28T05:56:45.098Z,10.55
2023-02-28T05:59:15.009Z,12.10
2023-02-28T06:01:48.164Z,11.38
2023-02-28T06:04:31.135Z,11.97
2023-02-28T06:06:52.115Z,11.65
2023-02-28T06:09:21.444Z,10.08
2023-02-28T06:11:50.836Z,10.08
2023-02-28T06:14:21.040Z,9.65
2023-02-28T06:16:50.681Z,10.32
2023-02-28T06:19:20.008Z,9.30
2023-02-28T06:21:52.756Z,9.25
2023-02-28T06:24:23.160Z,8.85
2023-02-28T06:26:52.474Z,11.10
2023-02-28T06:29:21.819Z,10.65
2023-02-28T06:31:51.176Z,11.18
2023-02-28T06:34:20.537Z,7.83
2023-02-28T06:36:52.661Z,10.10
2023-02-28T06:39:22.789Z,11.45
2023-02-28T06:41:56.033Z,8.15
2023-02-28T06:44:25.426Z,8.58
2023-02-28T06:46:54.913Z,8.33
2023-02-28T06:49:24.123Z,8.40
2023-02-28T06:51:53.530Z,7.80
2023-02-28T06:54:22.940Z,7.65
2023-02-28T06:56:52.853Z,8.13
2023-02-28T06:59:22.480Z,7.22
2023-02-28T07:01:52.104Z,7.70
2023-02-28T07:04:21.510Z,8.23
2023-02-28T07:06:51.207Z,9.88
2023-02-28T07:09:20.890Z,9.05
2023-02-28T07:11:50.104Z,9.73
2023-02-28T07:14:19.779Z,8.28
2023-02-28T07:16:48.981Z,9.83
2023-02-28T07:19:18.486Z,9.95
2023-02-28T07:21:47.683Z,6.95
2023-02-28T07:24:19.007Z,9.05
2023-02-28T07:26:48.261Z,8.63
2023-02-28T07:29:17.655Z,12.18
2023-02-28T07:31:47.640Z,11.97
2023-02-28T07:34:16.997Z,10.85
2023-02-28T07:36:46.510Z,9.35
2023-02-28T07:39:15.820Z,11.93
2023-02-28T07:41:45.350Z,12.82
2023-02-28T07:44:14.832Z,12.65
2023-02-28T07:46:44.130Z,9.80
2023-02-28T07:49:13.415Z,11.83
2023-02-28T07:51:42.670Z,9.48
2023-02-28T07:54:12.443Z,15.38
2023-02-28T07:56:41.672Z,22.95
2023-02-28T07:59:11.320Z,17.95
2023-02-28T08:01:40.660Z,14.58
2023-02-28T08:04:09.924Z,13.20
2023-02-28T08:06:39.486Z,13.58
2023-02-28T08:09:09.243Z,17.60
2023-02-28T08:11:38.782Z,8.78
2023-02-28T08:14:08.154Z,14.33
2023-02-28T08:16:38.053Z,20.27
2023-02-28T08:19:07.269Z,23.98
2023-02-28T08:21:37.089Z,23.87
2023-02-28T08:24:07.086Z,19.77
2023-02-28T08:26:36.483Z,14.53
2023-02-28T08:29:05.704Z,11.60
2023-02-28T08:31:36.606Z,10.05
2023-02-28T08:34:13.121Z,9.90
2023-02-28T08:36:44.215Z,8.10
2023-02-28T08:39:14.239Z,7.53
2023-02-28T08:41:45.251Z,8.00
2023-02-28T08:44:14.748Z,10.53
2023-02-28T08:46:44.004Z,10.28
2023-02-28T08:49:13.574Z,8.88
2023-02-28T08:51:42.858Z,9.13
2023-02-28T08:54:13.529Z,8.20
2023-02-28T08:56:43.165Z,8.30
2023-02-28T08:59:12.338Z,7.12
2023-02-28T09:01:42.795Z,7.67
2023-02-28T09:04:14.476Z,6.22
2023-02-28T09:06:43.585Z,8.15
2023-02-28T09:09:13.420Z,9.20
2023-02-28T09:11:43.378Z,6.78
2023-02-28T09:14:13.049Z,8.65
2023-02-28T09:16:42.587Z,9.78
2023-02-28T09:19:15.294Z,8.70
2023-02-28T09:21:44.990Z,8.78
2023-02-28T09:24:16.169Z,8.35
2023-02-28T09:26:56.316Z,6.08
2023-02-28T09:29:18.451Z,4.78
2023-02-28T09:31:48.359Z,3.85
2023-02-28T09:34:18.543Z,3.87
2023-02-28T09:36:48.687Z,2.98
2023-02-28T09:39:18.333Z,3.52
2023-02-28T09:41:51.794Z,3.62
2023-02-28T09:44:44.891Z,2.50
2023-02-28T09:47:20.068Z,4.45
2023-02-28T09:49:50.479Z,3.22
2023-02-28T09:52:23.273Z,3.52
2023-02-28T09:54:52.645Z,4.30
2023-02-28T09:57:41.414Z,5.42
2023-02-28T10:00:25.385Z,4.05
2023-02-28T10:03:15.956Z,4.47
2023-02-28T10:06:05.159Z,4.05
2023-02-28T10:08:46.753Z,4.65
2023-02-28T10:11:18.363Z,3.92
2023-02-28T10:13:53.988Z,3.97
2023-02-28T10:16:26.743Z,3.95
2023-02-28T10:19:05.290Z,4.90
2023-02-28T10:21:37.694Z,3.87
2023-02-28T10:24:16.235Z,4.62
2023-02-28T10:26:47.305Z,3.90
2023-02-28T10:29:17.181Z,3.83
2023-02-28T10:31:46.540Z,4.00
2023-02-28T10:34:15.840Z,2.60
2023-02-28T10:36:45.967Z,3.67
2023-02-28T10:39:40.629Z,5.03
2023-02-28T10:42:27.798Z,3.12
2023-02-28T10:45:17.972Z,2.85
2023-02-28T10:47:59.084Z,3.33
2023-02-28T10:50:45.266Z,3.35
2023-02-28T10:53:30.263Z,3.65
2023-02-28T10:56:04.612Z,2.52
2023-02-28T10:58:53.871Z,4.03
2023-02-28T11:01:40.953Z,3.10
2023-02-28T11:04:33.032Z,3.60
2023-02-28T11:07:05.326Z,3.70
2023-02-28T11:09:39.854Z,2.50
2023-02-28T11:12:12.209Z,3.33
2023-02-28T11:14:45.159Z,3.52
2023-02-28T11:17:17.713Z,3.37
2023-02-28T11:22:25.572Z,3.77
2023-02-28T11:24:57.277Z,6.85
2023-02-28T11:27:35.688Z,2.73
2023-02-28T11:30:05.787Z,4.08
2023-02-28T11:32:35.615Z,2.35
2023-02-28T11:35:14.746Z,3.25
2023-02-28T11:37:45.667Z,4.05
2023-02-28T11:40:20.790Z,2.85
2023-02-28T11:42:58.818Z,3.22
2023-02-28T11:45:41.533Z,3.33
2023-02-28T11:50:53.824Z,2.65
2023-02-28T11:53:29.396Z,2.37
2023-02-28T11:56:01.836Z,5.35
2023-02-28T11:58:56.876Z,3.10
2023-02-28T12:01:32.491Z,3.52
2023-02-28T12:04:16.502Z,2.70
2023-02-28T12:06:49.225Z,2.85
2023-02-28T12:09:24.537Z,3.75
2023-02-28T12:11:57.488Z,4.33
2023-02-28T12:14:38.982Z,4.75
2023-02-28T12:17:17.549Z,4.03
2023-02-28T12:19:56.516Z,4.12
2023-02-28T12:22:45.912Z,4.95
2023-02-28T12:25:34.775Z,3.08
2023-02-28T12:28:04.947Z,3.35
2023-02-28T12:30:37.328Z,3.27
2023-02-28T12:33:10.093Z,5.28
2023-02-28T12:35:56.774Z,4.10
2023-02-28T12:38:50.724Z,3.87
2023-02-28T12:41:38.708Z,3.37
2023-02-28T12:44:17.300Z,4.92
2023-02-28T12:46:52.598Z,5.10
2023-02-28T12:49:36.890Z,2.85
2023-02-28T12:52:06.924Z,3.55
2023-02-28T12:54:48.434Z,4.50
2023-02-28T12:57:23.893Z,4.20
2023-02-28T12:59:56.974Z,4.83
2023-02-28T13:02:38.748Z,4.55
2023-02-28T13:05:28.726Z,7.40
2023-02-28T13:08:17.651Z,5.78
2023-02-28T13:10:50.481Z,3.75
2023-02-28T13:13:21.787Z,4.83
2023-02-28T13:16:11.719Z,5.08
2023-02-28T13:18:48.480Z,5.05
2023-02-28T13:21:29.520Z,4.25
2023-02-28T13:24:02.591Z,5.42
2023-02-28T13:26:44.786Z,3.98
2023-02-28T13:29:20.196Z,2.92
2023-02-28T13:32:10.801Z,3.67
2023-02-28T13:34:45.755Z,3.92
2023-02-28T13:37:26.935Z,4.15
2023-02-28T13:40:16.156Z,4.55
2023-02-28T13:42:50.199Z,5.42
2023-02-28T13:45:25.254Z,4.40
2023-02-28T13:48:06.230Z,6.00
2023-02-28T13:50:39.002Z,5.95
2023-02-28T13:53:21.406Z,6.67
2023-02-28T13:56:27.790Z,7.10
2023-02-28T13:59:03.186Z,6.58
2023-02-28T14:01:39.076Z,6.03
2023-02-28T14:04:47.181Z,4.75
2023-02-28T14:07:36.210Z,5.25
2023-02-28T14:10:06.810Z,5.80
2023-02-28T14:13:05.250Z,4.50
2023-02-28T14:15:47.147Z,5.95
2023-02-28T14:18:26.954Z,9.20
2023-02-28T14:20:58.799Z,4.80
2023-02-28T14:23:51.349Z,7.12
2023-02-28T14:26:57.338Z,4.83
2023-02-28T14:29:41.731Z,4.97
2023-02-28T14:32:48.819Z,7.85
2023-02-28T14:35:47.247Z,5.00
2023-02-28T14:38:22.912Z,6.30
2023-02-28T14:40:54.400Z,4.20
2023-02-28T14:43:27.547Z,4.75
2023-02-28T14:45:59.470Z,5.10
2023-02-28T14:48:29.266Z,5.12
2023-02-28T14:51:00.821Z,4.30
2023-02-28T14:53:32.353Z,6.08
2023-02-28T14:56:01.964Z,5.78
2023-02-28T14:58:33.829Z,4.67
2023-02-28T15:01:05.125Z,7.00
2023-02-28T15:03:40.157Z,4.62
2023-02-28T15:06:19.495Z,7.30
2023-02-28T15:08:49.067Z,8.55
2023-02-28T15:11:25.517Z,5.37
2023-02-28T15:13:59.053Z,7.60
2023-02-28T15:16:39.989Z,4.60
2023-02-28T15:19:18.041Z,7.33
2023-02-28T15:21:50.512Z,4.37
2023-02-28T15:27:11.389Z,6.05
2023-02-28T15:29:50.162Z,8.48
2023-02-28T15:32:40.960Z,6.05
2023-02-28T15:35:28.769Z,8.10
2023-02-28T15:38:03.487Z,10.85
2023-02-28T15:40:36.035Z,6.05
2023-02-28T15:45:42.606Z,6.17
2023-02-28T15:48:23.435Z,6.55
2023-02-28T15:50:55.218Z,6.10
2023-02-28T15:53:48.586Z,6.53
2023-02-28T15:56:24.080Z,6.80
2023-02-28T15:58:58.013Z,8.60
2023-02-28T16:01:38.682Z,6.62
2023-02-28T16:04:21.939Z,4.83
2023-02-28T16:07:03.428Z,5.00
2023-02-28T16:09:34.959Z,4.83
2023-02-28T16:12:06.405Z,6.40
2023-02-28T16:14:36.633Z,7.40
2023-02-28T16:17:09.833Z,9.68
2023-02-28T16:19:39.099Z,5.40
2023-02-28T16:22:09.386Z,6.10
2023-02-28T16:24:39.630Z,5.85
2023-02-28T16:27:09.101Z,7.03
2023-02-28T16:29:39.456Z,6.67
2023-02-28T16:32:09.467Z,5.55
2023-02-28T16:34:39.045Z,7.55
2023-02-28T16:37:16.921Z,7.28
2023-02-28T16:39:47.598Z,5.70
2023-02-28T16:42:30.695Z,4.95
2023-02-28T16:45:00.570Z,5.17
2023-02-28T16:47:29.982Z,6.08
2023-02-28T16:49:59.820Z,6.08
2023-02-28T16:52:29.039Z,5.00
2023-02-28T16:54:58.338Z,4.90
2023-02-28T16:57:27.613Z,4.67
2023-02-28T16:59:56.861Z,6.60
2023-02-28T17:02:26.471Z,6.62
2023-02-28T17:04:56.157Z,6.70
2023-02-28T17:07:25.372Z,6.67
2023-02-28T17:09:54.994Z,6.90
2023-02-28T17:12:24.256Z,6.85
2023-02-28T17:14:53.826Z,5.15
2023-02-28T17:17:24.029Z,8.83
2023-02-28T17:19:53.272Z,9.00
2023-02-28T17:22:23.032Z,7.95
2023-02-28T17:24:52.543Z,7.30
2023-02-28T17:27:21.751Z,7.20
2023-02-28T17:29:51.225Z,6.42
2023-02-28T17:32:20.708Z,8.15
2023-02-28T17:34:49.981Z,7.62
2023-02-28T17:37:19.392Z,8.18
2023-02-28T17:39:48.762Z,12.75
2023-02-28T17:42:17.994Z,16.85
2023-02-28T17:44:47.530Z,18.70
2023-02-28T17:47:16.962Z,18.00
2023-02-28T17:49:46.369Z,19.45
2023-02-28T17:52:15.612Z,16.10
2023-02-28T17:54:45.308Z,14.03
2023-02-28T17:57:16.858Z,10.88
2023-02-28T17:59:46.769Z,9.37
2023-02-28T18:02:16.940Z,9.65
2023-02-28T18:04:46.266Z,8.23
2023-02-28T18:07:15.782Z,8.70
2023-02-28T18:09:45.079Z,8.20
2023-02-28T18:12:14.404Z,8.75
2023-02-28T18:14:44.062Z,9.75
2023-02-28T18:17:14.541Z,7.60
2023-02-28T18:19:43.763Z,8.53
2023-02-28T18:22:13.364Z,8.90
2023-02-28T18:24:42.763Z,7.87
2023-02-28T18:27:12.565Z,11.48
2023-02-28T18:29:42.088Z,11.28
2023-02-28T18:32:12.873Z,11.15
2023-02-28T18:34:42.398Z,12.07
2023-02-28T18:37:13.438Z,11.35
2023-02-28T18:39:42.682Z,9.73
2023-02-28T18:42:11.886Z,10.80
2023-02-28T18:44:41.713Z,8.93
2023-02-28T18:47:11.017Z,10.28
2023-02-28T18:49:40.496Z,11.85
2023-02-28T18:52:09.744Z,9.23
2023-02-28T18:54:38.993Z,9.05
2023-02-28T18:57:08.560Z,9.53
2023-02-28T18:59:37.841Z,10.32
2023-02-28T19:02:07.368Z,8.83
2023-02-28T19:04:36.683Z,10.93
2023-02-28T19:07:06.570Z,14.00
2023-02-28T19:09:36.113Z,10.32
2023-02-28T19:12:05.706Z,10.88
2023-02-28T19:14:35.114Z,10.43
2023-02-28T19:17:05.230Z,14.23
2023-02-28T19:19:34.491Z,10.20
2023-02-28T19:22:04.663Z,12.55
2023-02-28T19:24:34.339Z,11.65
2023-02-28T19:27:03.838Z,11.22
2023-02-28T19:29:33.306Z,12.18
2023-02-28T19:32:04.509Z,13.45
2023-02-28T19:34:35.348Z,14.63
2023-02-28T19:37:04.813Z,12.73
2023-02-28T19:39:35.745Z,12.70
2023-02-28T19:42:05.533Z,12.45
2023-02-28T19:44:35.028Z,11.08
2023-02-28T19:47:04.645Z,15.70
2023-02-28T19:49:34.277Z,13.32
2023-02-28T19:52:03.968Z,15.03
2023-02-28T19:54:34.834Z,12.93
2023-02-28T19:57:04.297Z,14.18
2023-02-28T19:59:39.221Z,13.43
2023-02-28T20:02:04.849Z,12.05
2023-02-28T20:04:34.688Z,13.75
2023-02-28T20:07:04.790Z,15.75
2023-02-28T20:09:34.430Z,13.18
2023-02-28T20:12:07.106Z,13.55
2023-02-28T20:14:35.022Z,13.73
2023-02-28T20:17:04.526Z,15.63
2023-02-28T20:19:34.153Z,15.40
2023-02-28T20:22:03.558Z,12.75
2023-02-28T20:24:32.915Z,15.75
2023-02-28T20:27:02.539Z,14.75
2023-02-28T20:29:31.951Z,16.35
2023-02-28T20:32:01.524Z,18.05
2023-02-28T20:34:31.129Z,13.60
2023-02-28T20:37:00.811Z,15.83
2023-02-28T20:39:30.199Z,13.50
2023-02-28T20:41:59.449Z,17.23
2023-02-28T20:44:29.375Z,17.95
2023-02-28T20:46:58.612Z,16.30
2023-02-28T20:49:27.947Z,16.52
2023-02-28T20:51:57.237Z,18.25
2023-02-28T20:54:28.060Z,19.05
2023-02-28T20:56:57.548Z,19.70
2023-02-28T20:59:27.087Z,17.12
2023-02-28T21:01:56.407Z,17.77
2023-02-28T21:04:25.910Z,16.17
2023-02-28T21:06:55.344Z,19.27
2023-02-28T21:09:24.802Z,18.00
2023-02-28T21:11:57.191Z,20.60
2023-02-28T21:14:27.354Z,17.98
2023-02-28T21:16:56.920Z,18.40
2023-02-28T21:19:26.283Z,19.80
2023-02-28T21:21:56.311Z,17.02
2023-02-28T21:24:25.575Z,18.87
2023-02-28T21:26:56.928Z,19.10
2023-02-28T21:29:26.184Z,19.03
2023-02-28T21:31:56.030Z,18.25
2023-02-28T21:34:26.901Z,19.65
2023-02-28T21:36:56.247Z,21.80
2023-02-28T21:39:30.071Z,19.10
2023-02-28T21:42:01.351Z,22.73
2023-02-28T21:44:31.841Z,21.48
2023-02-28T21:47:02.083Z,21.27
2023-02-28T21:49:43.028Z,20.00
2023-02-28T21:52:14.056Z,18.35
2023-02-28T21:54:48.462Z,19.30
2023-02-28T21:57:39.658Z,18.82
2023-02-28T22:00:12.740Z,19.12
2023-02-28T22:02:44.072Z,18.95
2023-02-28T22:05:14.369Z,19.50
2023-02-28T22:07:45.758Z,17.30
2023-02-28T22:10:15.380Z,17.43
2023-02-28T22:12:46.243Z,16.23
2023-02-28T22:15:18.074Z,23.55
2023-02-28T22:17:47.281Z,18.65
2023-02-28T22:20:17.213Z,20.70
2023-02-28T22:22:48.651Z,19.25
2023-02-28T22:25:19.025Z,21.27
2023-02-28T22:27:49.604Z,18.07
2023-02-28T22:30:19.954Z,22.10
2023-02-28T22:32:49.710Z,19.25
2023-02-28T22:35:40.946Z,18.40
2023-02-28T22:38:25.845Z,17.90
2023-02-28T22:40:58.291Z,18.70
2023-02-28T22:43:28.224Z,16.82
2023-02-28T22:45:57.937Z,18.25
2023-02-28T22:48:27.274Z,18.80
2023-02-28T22:51:07.848Z,18.02
2023-02-28T22:53:37.928Z,18.92
2023-02-28T22:56:08.254Z,17.98
2023-02-28T22:58:38.481Z,19.92
2023-02-28T23:01:10.484Z,18.98
2023-02-28T23:03:40.298Z,19.60
2023-02-28T23:06:24.446Z,17.67
2023-02-28T23:08:54.592Z,22.15
2023-02-28T23:11:27.165Z,21.07
2023-02-28T23:13:59.489Z,21.25
2023-02-28T23:16:41.421Z,21.00
2023-02-28T23:19:13.869Z,20.82
2023-02-28T23:21:44.503Z,23.02
2023-02-28T23:24:16.159Z,20.70
2023-02-28T23:26:47.831Z,14.60
2023-02-28T23:29:19.463Z,13.88
2023-02-28T23:31:49.010Z,20.85
2023-02-28T23:34:21.340Z,21.87
2023-02-28T23:39:19.679Z,21.48
2023-02-28T23:41:49.333Z,23.67
2023-02-28T23:44:18.933Z,20.50
2023-02-28T23:46:51.746Z,24.27
2023-02-28T23:49:22.133Z,22.02
2023-02-28T23:51:54.666Z,23.77
2023-02-28T23:54:24.253Z,23.18
2023-02-28T23:56:54.242Z,22.55
2023-02-28T23:59:23.532Z,21.62
